Report METAR

 

LIPB - Bolzano(Civ/It-A, Italy
Distance from station: NNE 37km
Dati ricevuti: 30/07/2021 08:50
Few Clouds
Few Clouds
 Vento da Variabile
Vento: Variabile 2 km/h
Temperatura: 23°C
P.to Rugiada: 17°C
Umidità: 69%
Barometro: 1014 hPa
Nuvole: Few Clouds
Visibility: 10 km
Cloud details: Few Clouds 1524 m
2021/07/30 06:50 LIPB 300650Z VRB01KT 9999 FEW050 23/17 Q1014
LIVR - Rolle Pass, Italy
Distance from station: ENE 46km
Dati ricevuti: 30/07/2021 08:55
Sereno
Sereno
 Vento da ESE
Vento: ESE 17 km/h
Temperatura: 14°C
P.to Rugiada: 11°C
Umidità: 82%
Barometro: 1023 hPa
Summary: Sereno
Visibility: superiore a 10 km
2021/07/30 06:55 LIVR 300655Z 11009KT CAVOK 14/11 Q1023 RMK SKC MON LIB VIS MIN 9999
 
LIPS - Istrana (it-Afb), Italy
Distance from station: SE 86km
Dati ricevuti: 30/07/2021 08:55
Sereno
Sereno
 Vento da E
Vento: E 11 km/h
Temperatura: 26°C
P.to Rugiada: 21°C
Umidità: 74%
Barometro: 1012 hPa
Summary: Sereno
Visibility: superiore a 10 km
2021/07/30 06:55 LIPS 300655Z 09006KT CAVOK 26/21 Q1012 RMK SKC VIS MIN 9999 WIND THR26 04005KT WIND THR08 08006KT BLK BLU
LIPX - Villafranca(Cv/M, Italy
Distance from station: SSO 88km
Dati ricevuti: 30/07/2021 08:50
Sereno
Sereno
 Vento da Variabile
Vento: Variabile 2 km/h
Temperatura: 26°C
P.to Rugiada: 19°C
Umidità: 65%
Barometro: 1012 hPa
Summary: Sereno
Visibility: superiore a 10 km
2021/07/30 06:50 LIPX 300650Z VRB01KT CAVOK 26/19 Q1012
 
LIPH - Treviso(Civ/It-A, Italy
Distance from station: SE 94km
Dati ricevuti: 30/07/2021 08:50
Sereno
Sereno
 Vento da NE
Vento: NE 9 km/h
Temperatura: 25°C
P.to Rugiada: 20°C
Umidità: 74%
Barometro: 1012 hPa
Summary: Sereno
Visibility: superiore a 10 km
2021/07/30 06:50 LIPH 300650Z 05005KT 010V080 CAVOK 25/20 Q1012
LIVE - Resia Pass, Italy
Distance from station: NO 95km
Dati ricevuti: 30/07/2021 08:55
Parz. nuvoloso
Parz. nuvoloso
 Vento da SSE
Vento: SSE 6 km/h
Temperatura: 13°C
P.to Rugiada: 12°C
Umidità: 94%
Barometro: 1019 hPa
Nuvole: Parz. nuvoloso
Visibility: 10 km
Cloud details: Few Clouds 762 m
Parz. nuvoloso 914 m
2021/07/30 06:55 LIVE 300655Z 15003KT 9999 FEW025 SCT030 13/12 Q1019 RMK SCT VIS MIN 9999
 
LIPU - Padova (civ/It-A, Italy
Distance from station: SSE 98km
Dati ricevuti: 30/07/2021 08:00
Sereno
Sereno
 Vento da Variabile
Vento: Variabile 4 km/h
Temperatura: 23°C
P.to Rugiada: 20°C
Umidità: 83%
Barometro: 1012 hPa
Summary: Sereno
Visibility: superiore a 10 km
2021/07/30 06:00 LIPU 300600Z VRB02KT CAVOK 23/20 Q1012